Plum, Pennsylvania
Current Conditions -  °F | °C
As of 9:53 AM on Saturday 22 Nov 2014 (Local Time) from KAGC Reporting Station
Overcast Overcast  
Wind Chill: -4°   Ceiling: 4100
Heat Index:   Visibility: 10mi
Dew Point: -13°   Wind: 9mph
Humidity: 38%   Direction: 180°S
Pressure: 30.29"   Gusts: NA
Location:  40.5°N, 79.76°W
Report Text: KAGC 221453Z 18008KT 10SM BKN041 OVC048 00/M13 A3029 RMK AO2 UPB27E37 SLP277 P0000 60000 T00001128 58008
Loading
Personal Weather Stations






























Interactive Weather Map New forecast layout! Learn more

10-Day Weather Forecast

Advertisements
Track Severe Weather on mobile